sensor_id;sensor_type;location;lat;lon;timestamp;temperature;humidity
80220;DHT22;76726;42.134;24.748;2024-03-23T00:53:04;9.30;48.50
80220;DHT22;76726;42.134;24.748;2024-03-23T00:55:30;9.30;48.40
80220;DHT22;76726;42.134;24.748;2024-03-23T00:57:56;9.30;48.30
80220;DHT22;76726;42.134;24.748;2024-03-23T01:00:21;9.30;48.50
80220;DHT22;76726;42.134;24.748;2024-03-23T01:02:47;9.30;48.70
80220;DHT22;76726;42.134;24.748;2024-03-23T01:05:13;9.30;48.70
80220;DHT22;76726;42.134;24.748;2024-03-23T01:07:39;9.30;48.70
80220;DHT22;76726;42.134;24.748;2024-03-23T01:10:05;9.20;48.80
80220;DHT22;76726;42.134;24.748;2024-03-23T01:12:31;9.30;48.70
80220;DHT22;76726;42.134;24.748;2024-03-23T01:14:57;9.30;48.80
80220;DHT22;76726;42.134;24.748;2024-03-23T01:17:23;9.30;48.90
80220;DHT22;76726;42.134;24.748;2024-03-23T01:19:50;9.30;49.00
80220;DHT22;76726;42.134;24.748;2024-03-23T01:22:16;9.20;48.40
80220;DHT22;76726;42.134;24.748;2024-03-23T01:24:42;9.20;48.50
80220;DHT22;76726;42.134;24.748;2024-03-23T01:27:08;9.20;48.30
80220;DHT22;76726;42.134;24.748;2024-03-23T01:29:34;9.10;48.50
80220;DHT22;76726;42.134;24.748;2024-03-23T01:32:00;9.10;48.60
80220;DHT22;76726;42.134;24.748;2024-03-23T01:34:26;9.00;48.50
80220;DHT22;76726;42.134;24.748;2024-03-23T01:36:52;8.90;48.60
80220;DHT22;76726;42.134;24.748;2024-03-23T01:39:18;8.80;48.80
80220;DHT22;76726;42.134;24.748;2024-03-23T01:41:44;8.70;48.90
80220;DHT22;76726;42.134;24.748;2024-03-23T01:44:10;8.70;49.10
80220;DHT22;76726;42.134;24.748;2024-03-23T01:46:37;8.60;49.30
80220;DHT22;76726;42.134;24.748;2024-03-23T01:49:06;8.60;49.50
80220;DHT22;76726;42.134;24.748;2024-03-23T01:51:32;8.60;49.70
80220;DHT22;76726;42.134;24.748;2024-03-23T01:53:58;8.50;49.90
80220;DHT22;76726;42.134;24.748;2024-03-23T01:56:26;8.50;50.20
80220;DHT22;76726;42.134;24.748;2024-03-23T01:58:52;8.40;50.40
80220;DHT22;76726;42.134;24.748;2024-03-23T02:01:18;8.40;50.60
80220;DHT22;76726;42.134;24.748;2024-03-23T02:03:45;8.40;50.60
80220;DHT22;76726;42.134;24.748;2024-03-23T02:06:10;8.40;50.50
80220;DHT22;76726;42.134;24.748;2024-03-23T02:08:36;8.40;50.50
80220;DHT22;76726;42.134;24.748;2024-03-23T02:11:02;8.30;50.50
80220;DHT22;76726;42.134;24.748;2024-03-23T02:13:28;8.30;50.50
80220;DHT22;76726;42.134;24.748;2024-03-23T02:15:54;8.30;50.40
80220;DHT22;76726;42.134;24.748;2024-03-23T02:18:20;8.30;50.40
80220;DHT22;76726;42.134;24.748;2024-03-23T02:20:46;8.30;50.40
80220;DHT22;76726;42.134;24.748;2024-03-23T02:23:15;8.30;50.40
80220;DHT22;76726;42.134;24.748;2024-03-23T02:25:42;8.20;50.50
80220;DHT22;76726;42.134;24.748;2024-03-23T02:28:08;8.20;50.70
80220;DHT22;76726;42.134;24.748;2024-03-23T02:30:34;8.20;50.90
80220;DHT22;76726;42.134;24.748;2024-03-23T02:33:00;8.20;51.00
80220;DHT22;76726;42.134;24.748;2024-03-23T02:35:26;8.20;50.80
80220;DHT22;76726;42.134;24.748;2024-03-23T02:37:52;8.20;50.80
80220;DHT22;76726;42.134;24.748;2024-03-23T02:40:19;8.20;50.70
80220;DHT22;76726;42.134;24.748;2024-03-23T02:42:46;8.20;50.70
80220;DHT22;76726;42.134;24.748;2024-03-23T02:45:11;8.20;50.80
80220;DHT22;76726;42.134;24.748;2024-03-23T02:47:37;8.20;50.80
80220;DHT22;76726;42.134;24.748;2024-03-23T02:50:03;8.20;50.80
80220;DHT22;76726;42.134;24.748;2024-03-23T02:52:30;8.30;50.70
80220;DHT22;76726;42.134;24.748;2024-03-23T02:54:56;8.20;50.70
80220;DHT22;76726;42.134;24.748;2024-03-23T02:57:22;8.20;50.70
80220;DHT22;76726;42.134;24.748;2024-03-23T02:59:48;8.20;50.80
80220;DHT22;76726;42.134;24.748;2024-03-23T03:02:14;8.20;51.00
80220;DHT22;76726;42.134;24.748;2024-03-23T03:04:40;8.20;50.90
80220;DHT22;76726;42.134;24.748;2024-03-23T03:07:06;8.20;50.70
80220;DHT22;76726;42.134;24.748;2024-03-23T03:09:32;8.20;50.70
80220;DHT22;76726;42.134;24.748;2024-03-23T03:11:58;8.20;51.00
80220;DHT22;76726;42.134;24.748;2024-03-23T03:14:24;8.10;51.40
80220;DHT22;76726;42.134;24.748;2024-03-23T03:16:50;8.10;51.20
80220;DHT22;76726;42.134;24.748;2024-03-23T03:19:16;8.20;51.00
80220;DHT22;76726;42.134;24.748;2024-03-23T03:21:42;8.10;51.10
80220;DHT22;76726;42.134;24.748;2024-03-23T03:24:08;8.10;51.10
80220;DHT22;76726;42.134;24.748;2024-03-23T03:26:34;8.10;51.10
80220;DHT22;76726;42.134;24.748;2024-03-23T03:29:00;8.10;51.10
80220;DHT22;76726;42.134;24.748;2024-03-23T03:31:26;8.10;50.80
80220;DHT22;76726;42.134;24.748;2024-03-23T03:33:52;8.00;50.70
80220;DHT22;76726;42.134;24.748;2024-03-23T03:36:18;7.80;51.20
80220;DHT22;76726;42.134;24.748;2024-03-23T03:38:44;7.70;51.90
80220;DHT22;76726;42.134;24.748;2024-03-23T03:41:09;7.70;51.50
80220;DHT22;76726;42.134;24.748;2024-03-23T03:43:35;7.70;51.30
80220;DHT22;76726;42.134;24.748;2024-03-23T03:46:01;7.60;51.60
80220;DHT22;76726;42.134;24.748;2024-03-23T03:48:28;7.50;51.70
80220;DHT22;76726;42.134;24.748;2024-03-23T03:50:54;7.30;52.20
80220;DHT22;76726;42.134;24.748;2024-03-23T03:53:20;7.20;52.20
80220;DHT22;76726;42.134;24.748;2024-03-23T03:55:46;7.30;52.40
80220;DHT22;76726;42.134;24.748;2024-03-23T03:58:12;7.30;52.30
80220;DHT22;76726;42.134;24.748;2024-03-23T04:00:38;7.30;52.30
80220;DHT22;76726;42.134;24.748;2024-03-23T04:03:04;7.30;52.40
80220;DHT22;76726;42.134;24.748;2024-03-23T04:05:30;7.30;52.10
80220;DHT22;76726;42.134;24.748;2024-03-23T04:07:56;7.30;50.70
80220;DHT22;76726;42.134;24.748;2024-03-23T04:10:22;7.30;51.00
80220;DHT22;76726;42.134;24.748;2024-03-23T04:12:48;7.30;51.30
80220;DHT22;76726;42.134;24.748;2024-03-23T04:15:14;7.10;51.70
80220;DHT22;76726;42.134;24.748;2024-03-23T04:17:40;7.00;52.20
80220;DHT22;76726;42.134;24.748;2024-03-23T04:20:08;6.90;52.20
80220;DHT22;76726;42.134;24.748;2024-03-23T04:22:37;6.80;53.00
80220;DHT22;76726;42.134;24.748;2024-03-23T04:25:03;6.70;53.20
80220;DHT22;76726;42.134;24.748;2024-03-23T04:27:35;6.70;53.30
80220;DHT22;76726;42.134;24.748;2024-03-23T04:30:01;6.60;53.10
80220;DHT22;76726;42.134;24.748;2024-03-23T04:32:28;6.60;53.00
80220;DHT22;76726;42.134;24.748;2024-03-23T04:34:54;6.60;52.70
80220;DHT22;76726;42.134;24.748;2024-03-23T04:37:20;6.50;53.30
80220;DHT22;76726;42.134;24.748;2024-03-23T04:39:47;6.40;53.40
80220;DHT22;76726;42.134;24.748;2024-03-23T04:42:14;6.30;53.70
80220;DHT22;76726;42.134;24.748;2024-03-23T04:44:40;6.30;54.00
80220;DHT22;76726;42.134;24.748;2024-03-23T04:47:06;6.30;53.90
80220;DHT22;76726;42.134;24.748;2024-03-23T04:49:32;6.30;53.50
80220;DHT22;76726;42.134;24.748;2024-03-23T04:51:58;6.30;53.20
80220;DHT22;76726;42.134;24.748;2024-03-23T04:54:24;6.30;53.70
80220;DHT22;76726;42.134;24.748;2024-03-23T04:56:50;6.20;53.90
80220;DHT22;76726;42.134;24.748;2024-03-23T04:59:16;6.20;54.00
80220;DHT22;76726;42.134;24.748;2024-03-23T05:01:41;6.30;54.10
80220;DHT22;76726;42.134;24.748;2024-03-23T05:04:08;6.30;53.70
80220;DHT22;76726;42.134;24.748;2024-03-23T05:06:34;6.50;53.50
80220;DHT22;76726;42.134;24.748;2024-03-23T05:09:00;6.60;52.90
80220;DHT22;76726;42.134;24.748;2024-03-23T05:11:32;6.80;52.60
80220;DHT22;76726;42.134;24.748;2024-03-23T05:13:58;6.90;51.70
80220;DHT22;76726;42.134;24.748;2024-03-23T05:16:24;7.00;51.30
80220;DHT22;76726;42.134;24.748;2024-03-23T05:18:50;7.10;51.20
80220;DHT22;76726;42.134;24.748;2024-03-23T05:21:16;7.20;50.80
80220;DHT22;76726;42.134;24.748;2024-03-23T05:23:41;7.30;50.70
80220;DHT22;76726;42.134;24.748;2024-03-23T05:26:09;7.30;50.70
80220;DHT22;76726;42.134;24.748;2024-03-23T05:28:35;7.30;50.60
80220;DHT22;76726;42.134;24.748;2024-03-23T05:31:01;7.20;50.80
80220;DHT22;76726;42.134;24.748;2024-03-23T05:33:27;7.30;50.90
80220;DHT22;76726;42.134;24.748;2024-03-23T05:35:57;7.50;50.60
80220;DHT22;76726;42.134;24.748;2024-03-23T05:38:24;7.50;49.20
80220;DHT22;76726;42.134;24.748;2024-03-23T05:40:53;7.60;48.90
80220;DHT22;76726;42.134;24.748;2024-03-23T05:43:19;7.60;49.20
80220;DHT22;76726;42.134;24.748;2024-03-23T05:45:45;7.70;49.30
80220;DHT22;76726;42.134;24.748;2024-03-23T05:48:11;7.70;49.20
80220;DHT22;76726;42.134;24.748;2024-03-23T05:50:37;7.90;48.80
80220;DHT22;76726;42.134;24.748;2024-03-23T05:53:03;8.00;48.70
80220;DHT22;76726;42.134;24.748;2024-03-23T05:55:30;8.10;48.20
80220;DHT22;76726;42.134;24.748;2024-03-23T05:57:58;8.30;47.80
80220;DHT22;76726;42.134;24.748;2024-03-23T06:00:25;8.40;47.40
80220;DHT22;76726;42.134;24.748;2024-03-23T06:02:52;8.50;47.10
80220;DHT22;76726;42.134;24.748;2024-03-23T06:05:17;8.60;46.90
80220;DHT22;76726;42.134;24.748;2024-03-23T06:07:43;8.60;46.80
80220;DHT22;76726;42.134;24.748;2024-03-23T06:10:09;8.70;46.60
80220;DHT22;76726;42.134;24.748;2024-03-23T06:12:35;8.80;46.40
80220;DHT22;76726;42.134;24.748;2024-03-23T06:15:01;8.90;46.00
80220;DHT22;76726;42.134;24.748;2024-03-23T06:17:27;9.10;45.60
80220;DHT22;76726;42.134;24.748;2024-03-23T06:19:53;9.20;45.30
80220;DHT22;76726;42.134;24.748;2024-03-23T06:22:19;9.30;45.10
80220;DHT22;76726;42.134;24.748;2024-03-23T06:24:46;9.40;44.80
80220;DHT22;76726;42.134;24.748;2024-03-23T06:27:13;9.50;44.80
80220;DHT22;76726;42.134;24.748;2024-03-23T06:29:39;9.60;44.50
80220;DHT22;76726;42.134;24.748;2024-03-23T06:32:05;9.70;44.40
80220;DHT22;76726;42.134;24.748;2024-03-23T06:34:30;9.60;44.10
80220;DHT22;76726;42.134;24.748;2024-03-23T06:36:56;9.70;44.00
80220;DHT22;76726;42.134;24.748;2024-03-23T06:39:22;9.60;43.60
80220;DHT22;76726;42.134;24.748;2024-03-23T06:41:52;9.70;43.90
80220;DHT22;76726;42.134;24.748;2024-03-23T06:44:18;9.70;43.90
80220;DHT22;76726;42.134;24.748;2024-03-23T06:46:45;9.80;43.80
80220;DHT22;76726;42.134;24.748;2024-03-23T06:49:11;9.90;43.80
80220;DHT22;76726;42.134;24.748;2024-03-23T06:51:37;10.00;44.30
80220;DHT22;76726;42.134;24.748;2024-03-23T06:54:03;10.10;43.20
80220;DHT22;76726;42.134;24.748;2024-03-23T06:56:30;10.20;42.90
80220;DHT22;76726;42.134;24.748;2024-03-23T06:58:56;10.20;42.90
80220;DHT22;76726;42.134;24.748;2024-03-23T07:01:22;10.30;42.80
80220;DHT22;76726;42.134;24.748;2024-03-23T07:03:48;10.40;42.50
80220;DHT22;76726;42.134;24.748;2024-03-23T07:06:14;10.60;42.30
80220;DHT22;76726;42.134;24.748;2024-03-23T07:08:41;10.70;42.00
80220;DHT22;76726;42.134;24.748;2024-03-23T07:11:07;10.70;41.90
80220;DHT22;76726;42.134;24.748;2024-03-23T07:13:33;10.80;41.70
80220;DHT22;76726;42.134;24.748;2024-03-23T07:15:58;10.90;41.80
80220;DHT22;76726;42.134;24.748;2024-03-23T07:18:25;10.90;41.30
80220;DHT22;76726;42.134;24.748;2024-03-23T07:20:52;10.90;41.30
80220;DHT22;76726;42.134;24.748;2024-03-23T07:23:18;11.00;40.90
80220;DHT22;76726;42.134;24.748;2024-03-23T07:25:44;11.10;40.70
80220;DHT22;76726;42.134;24.748;2024-03-23T07:28:10;11.30;40.50
80220;DHT22;76726;42.134;24.748;2024-03-23T07:30:36;11.40;40.10
80220;DHT22;76726;42.134;24.748;2024-03-23T07:33:02;11.30;40.40
80220;DHT22;76726;42.134;24.748;2024-03-23T07:35:27;11.40;40.10
80220;DHT22;76726;42.134;24.748;2024-03-23T07:37:53;11.60;39.50
80220;DHT22;76726;42.134;24.748;2024-03-23T07:40:19;11.70;39.10
80220;DHT22;76726;42.134;24.748;2024-03-23T07:42:45;11.80;38.90
80220;DHT22;76726;42.134;24.748;2024-03-23T07:45:11;12.00;38.30
80220;DHT22;76726;42.134;24.748;2024-03-23T07:47:37;12.20;37.90
80220;DHT22;76726;42.134;24.748;2024-03-23T07:50:03;12.20;37.50
80220;DHT22;76726;42.134;24.748;2024-03-23T07:52:30;12.30;37.30
80220;DHT22;76726;42.134;24.748;2024-03-23T07:54:56;12.30;37.00
80220;DHT22;76726;42.134;24.748;2024-03-23T07:57:22;12.30;37.20
80220;DHT22;76726;42.134;24.748;2024-03-23T07:59:48;12.50;37.30
80220;DHT22;76726;42.134;24.748;2024-03-23T08:02:15;12.40;36.90
80220;DHT22;76726;42.134;24.748;2024-03-23T08:04:41;12.60;36.60
80220;DHT22;76726;42.134;24.748;2024-03-23T08:07:06;12.70;37.00
80220;DHT22;76726;42.134;24.748;2024-03-23T08:09:32;12.90;36.90
80220;DHT22;76726;42.134;24.748;2024-03-23T08:11:58;13.00;36.70
80220;DHT22;76726;42.134;24.748;2024-03-23T08:14:24;13.10;36.50
80220;DHT22;76726;42.134;24.748;2024-03-23T08:16:50;13.10;36.30
80220;DHT22;76726;42.134;24.748;2024-03-23T08:19:17;13.20;36.10
80220;DHT22;76726;42.134;24.748;2024-03-23T08:21:43;13.30;36.00
80220;DHT22;76726;42.134;24.748;2024-03-23T08:24:09;13.40;35.60
80220;DHT22;76726;42.134;24.748;2024-03-23T08:26:37;13.60;35.20
80220;DHT22;76726;42.134;24.748;2024-03-23T08:29:03;13.70;35.10
80220;DHT22;76726;42.134;24.748;2024-03-23T08:31:29;13.70;35.10
80220;DHT22;76726;42.134;24.748;2024-03-23T08:33:55;13.90;35.20
80220;DHT22;76726;42.134;24.748;2024-03-23T08:36:21;14.00;34.80
80220;DHT22;76726;42.134;24.748;2024-03-23T08:38:47;14.10;34.20
80220;DHT22;76726;42.134;24.748;2024-03-23T08:41:13;14.10;33.80
80220;DHT22;76726;42.134;24.748;2024-03-23T08:43:40;14.20;33.80
80220;DHT22;76726;42.134;24.748;2024-03-23T08:46:06;14.40;33.90
80220;DHT22;76726;42.134;24.748;2024-03-23T08:48:34;14.50;33.30
80220;DHT22;76726;42.134;24.748;2024-03-23T08:51:00;14.60;32.90
80220;DHT22;76726;42.134;24.748;2024-03-23T08:53:27;14.70;32.60
80220;DHT22;76726;42.134;24.748;2024-03-23T08:55:54;14.90;32.60
80220;DHT22;76726;42.134;24.748;2024-03-23T08:58:20;15.00;31.90
80220;DHT22;76726;42.134;24.748;2024-03-23T09:00:46;15.20;31.20
80220;DHT22;76726;42.134;24.748;2024-03-23T09:03:12;15.20;31.00
80220;DHT22;76726;42.134;24.748;2024-03-23T09:05:39;15.30;31.00
80220;DHT22;76726;42.134;24.748;2024-03-23T09:08:05;15.40;31.30
80220;DHT22;76726;42.134;24.748;2024-03-23T09:10:31;15.40;31.30
80220;DHT22;76726;42.134;24.748;2024-03-23T09:12:57;15.50;31.60
80220;DHT22;76726;42.134;24.748;2024-03-23T09:15:23;15.50;30.90
80220;DHT22;76726;42.134;24.748;2024-03-23T09:17:48;15.50;30.70
80220;DHT22;76726;42.134;24.748;2024-03-23T09:20:14;15.60;30.90
80220;DHT22;76726;42.134;24.748;2024-03-23T09:22:40;15.70;30.90
80220;DHT22;76726;42.134;24.748;2024-03-23T09:25:06;15.80;30.90
80220;DHT22;76726;42.134;24.748;2024-03-23T09:27:32;15.90;30.40
80220;DHT22;76726;42.134;24.748;2024-03-23T09:29:58;16.00;30.30
80220;DHT22;76726;42.134;24.748;2024-03-23T09:32:24;16.10;29.80
80220;DHT22;76726;42.134;24.748;2024-03-23T09:34:51;16.20;30.20
80220;DHT22;76726;42.134;24.748;2024-03-23T09:37:17;16.20;29.80
80220;DHT22;76726;42.134;24.748;2024-03-23T09:39:45;16.40;29.90
80220;DHT22;76726;42.134;24.748;2024-03-23T09:42:10;16.40;30.10
80220;DHT22;76726;42.134;24.748;2024-03-23T09:44:36;16.50;29.40
80220;DHT22;76726;42.134;24.748;2024-03-23T09:47:02;16.60;29.40
80220;DHT22;76726;42.134;24.748;2024-03-23T09:49:29;16.70;30.00
80220;DHT22;76726;42.134;24.748;2024-03-23T09:51:55;16.60;30.10
80220;DHT22;76726;42.134;24.748;2024-03-23T09:54:21;16.60;30.40
80220;DHT22;76726;42.134;24.748;2024-03-23T09:56:47;16.70;30.10
80220;DHT22;76726;42.134;24.748;2024-03-23T09:59:13;16.80;30.30
80220;DHT22;76726;42.134;24.748;2024-03-23T10:01:39;16.70;30.60
80220;DHT22;76726;42.134;24.748;2024-03-23T10:04:05;16.80;30.70
80220;DHT22;76726;42.134;24.748;2024-03-23T10:06:31;17.00;31.30
80220;DHT22;76726;42.134;24.748;2024-03-23T10:09:00;17.20;30.30
80220;DHT22;76726;42.134;24.748;2024-03-23T10:11:26;17.30;30.70
80220;DHT22;76726;42.134;24.748;2024-03-23T10:13:54;17.40;29.70
80220;DHT22;76726;42.134;24.748;2024-03-23T10:16:22;17.50;29.80
80220;DHT22;76726;42.134;24.748;2024-03-23T10:18:49;17.50;29.50
80220;DHT22;76726;42.134;24.748;2024-03-23T10:21:16;17.60;29.40
80220;DHT22;76726;42.134;24.748;2024-03-23T10:23:43;17.60;29.40
80220;DHT22;76726;42.134;24.748;2024-03-23T10:28:54;17.60;30.00
80220;DHT22;76726;42.134;24.748;2024-03-23T10:31:20;17.70;29.90
80220;DHT22;76726;42.134;24.748;2024-03-23T10:33:47;17.80;29.60
80220;DHT22;76726;42.134;24.748;2024-03-23T10:36:13;18.00;28.50
80220;DHT22;76726;42.134;24.748;2024-03-23T10:38:43;18.30;28.70
80220;DHT22;76726;42.134;24.748;2024-03-23T10:41:10;18.30;29.20
80220;DHT22;76726;42.134;24.748;2024-03-23T10:43:37;18.40;28.60
80220;DHT22;76726;42.134;24.748;2024-03-23T10:46:03;18.50;28.30
80220;DHT22;76726;42.134;24.748;2024-03-23T10:48:29;18.50;27.80
80220;DHT22;76726;42.134;24.748;2024-03-23T10:50:55;18.70;28.10
80220;DHT22;76726;42.134;24.748;2024-03-23T10:53:21;18.70;27.10
80220;DHT22;76726;42.134;24.748;2024-03-23T10:55:49;18.70;28.00
80220;DHT22;76726;42.134;24.748;2024-03-23T10:58:15;18.80;28.00
80220;DHT22;76726;42.134;24.748;2024-03-23T11:00:42;18.80;28.10
80220;DHT22;76726;42.134;24.748;2024-03-23T11:03:30;19.00;27.90
80220;DHT22;76726;42.134;24.748;2024-03-23T11:05:54;19.10;27.40
80220;DHT22;76726;42.134;24.748;2024-03-23T11:08:34;19.20;27.70
80220;DHT22;76726;42.134;24.748;2024-03-23T11:13:48;19.30;27.30
80220;DHT22;76726;42.134;24.748;2024-03-23T11:18:43;19.60;27.40
80220;DHT22;76726;42.134;24.748;2024-03-23T11:21:10;19.60;27.20
80220;DHT22;76726;42.134;24.748;2024-03-23T11:23:36;19.80;26.60
80220;DHT22;76726;42.134;24.748;2024-03-23T11:26:02;19.70;26.00
80220;DHT22;76726;42.134;24.748;2024-03-23T11:28:32;19.80;26.20
80220;DHT22;76726;42.134;24.748;2024-03-23T11:30:58;19.90;26.20
80220;DHT22;76726;42.134;24.748;2024-03-23T11:33:24;20.00;26.90
80220;DHT22;76726;42.134;24.748;2024-03-23T11:35:50;19.90;26.00
80220;DHT22;76726;42.134;24.748;2024-03-23T11:38:17;20.10;26.00
80220;DHT22;76726;42.134;24.748;2024-03-23T11:40:45;20.10;25.60
80220;DHT22;76726;42.134;24.748;2024-03-23T11:43:17;20.00;25.70
80220;DHT22;76726;42.134;24.748;2024-03-23T11:45:46;20.00;25.70
80220;DHT22;76726;42.134;24.748;2024-03-23T11:50:42;20.20;25.40
80220;DHT22;76726;42.134;24.748;2024-03-23T11:58:10;21.60;24.40
80220;DHT22;76726;42.134;24.748;2024-03-23T12:00:36;22.80;23.30
80220;DHT22;76726;42.134;24.748;2024-03-23T12:03:03;25.00;21.50
80220;DHT22;76726;42.134;24.748;2024-03-23T12:05:30;27.30;20.00
80220;DHT22;76726;42.134;24.748;2024-03-23T12:08:15;29.70;18.60
80220;DHT22;76726;42.134;24.748;2024-03-23T12:10:43;31.70;18.00
80220;DHT22;76726;42.134;24.748;2024-03-23T12:13:09;33.70;17.10
80220;DHT22;76726;42.134;24.748;2024-03-23T12:15:36;34.80;16.50
80220;DHT22;76726;42.134;24.748;2024-03-23T12:18:08;36.10;16.00
80220;DHT22;76726;42.134;24.748;2024-03-23T12:20:35;37.60;15.70
80220;DHT22;76726;42.134;24.748;2024-03-23T12:23:10;39.30;14.90
80220;DHT22;76726;42.134;24.748;2024-03-23T12:25:37;40.60;14.50
80220;DHT22;76726;42.134;24.748;2024-03-23T12:28:04;41.70;14.20
80220;DHT22;76726;42.134;24.748;2024-03-23T12:30:32;42.50;14.10
80220;DHT22;76726;42.134;24.748;2024-03-23T12:32:58;42.80;13.60
80220;DHT22;76726;42.134;24.748;2024-03-23T12:35:24;43.30;13.50
80220;DHT22;76726;42.134;24.748;2024-03-23T12:37:50;44.20;13.00
80220;DHT22;76726;42.134;24.748;2024-03-23T12:40:16;45.00;13.20
80220;DHT22;76726;42.134;24.748;2024-03-23T12:42:42;45.70;13.10
80220;DHT22;76726;42.134;24.748;2024-03-23T12:45:08;46.00;13.10
80220;DHT22;76726;42.134;24.748;2024-03-23T12:47:34;46.40;12.80
80220;DHT22;76726;42.134;24.748;2024-03-23T12:50:00;46.50;12.60
80220;DHT22;76726;42.134;24.748;2024-03-23T12:52:26;46.50;12.10
80220;DHT22;76726;42.134;24.748;2024-03-23T12:54:54;46.70;12.30
80220;DHT22;76726;42.134;24.748;2024-03-23T12:57:25;47.20;12.10
80220;DHT22;76726;42.134;24.748;2024-03-23T12:59:51;47.50;11.90
80220;DHT22;76726;42.134;24.748;2024-03-23T13:02:20;47.10;11.70
80220;DHT22;76726;42.134;24.748;2024-03-23T13:04:49;47.20;12.00
80220;DHT22;76726;42.134;24.748;2024-03-23T13:07:15;47.00;11.90
80220;DHT22;76726;42.134;24.748;2024-03-23T13:09:42;47.00;11.90
80220;DHT22;76726;42.134;24.748;2024-03-23T13:12:08;46.70;12.00
80220;DHT22;76726;42.134;24.748;2024-03-23T13:14:34;46.20;11.70
80220;DHT22;76726;42.134;24.748;2024-03-23T13:16:59;46.40;12.00
80220;DHT22;76726;42.134;24.748;2024-03-23T13:19:26;46.40;11.60
80220;DHT22;76726;42.134;24.748;2024-03-23T13:21:55;46.50;11.50
80220;DHT22;76726;42.134;24.748;2024-03-23T13:24:21;47.00;11.60
80220;DHT22;76726;42.134;24.748;2024-03-23T13:26:47;47.40;11.70
80220;DHT22;76726;42.134;24.748;2024-03-23T13:29:13;47.80;11.50
80220;DHT22;76726;42.134;24.748;2024-03-23T13:31:39;47.90;11.50
80220;DHT22;76726;42.134;24.748;2024-03-23T13:34:05;47.40;11.30
80220;DHT22;76726;42.134;24.748;2024-03-23T13:36:31;47.20;11.60
80220;DHT22;76726;42.134;24.748;2024-03-23T13:38:57;47.20;11.40
80220;DHT22;76726;42.134;24.748;2024-03-23T13:41:23;46.50;11.60
80220;DHT22;76726;42.134;24.748;2024-03-23T13:43:49;45.30;11.90
80220;DHT22;76726;42.134;24.748;2024-03-23T13:46:15;44.40;12.20
80220;DHT22;76726;42.134;24.748;2024-03-23T13:48:41;43.40;12.40
80220;DHT22;76726;42.134;24.748;2024-03-23T13:51:08;42.30;12.20
80220;DHT22;76726;42.134;24.748;2024-03-23T13:53:33;42.10;12.20
80220;DHT22;76726;42.134;24.748;2024-03-23T13:55:59;42.40;12.40
80220;DHT22;76726;42.134;24.748;2024-03-23T13:58:26;42.70;12.10
80220;DHT22;76726;42.134;24.748;2024-03-23T14:00:52;43.20;11.90
80220;DHT22;76726;42.134;24.748;2024-03-23T14:03:18;43.30;11.80
80220;DHT22;76726;42.134;24.748;2024-03-23T14:05:45;43.30;12.00
80220;DHT22;76726;42.134;24.748;2024-03-23T14:08:12;42.60;11.90
80220;DHT22;76726;42.134;24.748;2024-03-23T14:10:41;41.40;12.30
80220;DHT22;76726;42.134;24.748;2024-03-23T14:13:07;40.20;12.60
80220;DHT22;76726;42.134;24.748;2024-03-23T14:15:33;38.70;12.70
80220;DHT22;76726;42.134;24.748;2024-03-23T14:17:59;37.60;13.30
80220;DHT22;76726;42.134;24.748;2024-03-23T14:20:25;37.60;13.50
80220;DHT22;76726;42.134;24.748;2024-03-23T14:22:51;37.60;13.30
80220;DHT22;76726;42.134;24.748;2024-03-23T14:25:17;37.70;13.70
80220;DHT22;76726;42.134;24.748;2024-03-23T14:27:44;38.40;13.30
80220;DHT22;76726;42.134;24.748;2024-03-23T14:30:11;38.80;13.40
80220;DHT22;76726;42.134;24.748;2024-03-23T14:32:38;39.30;13.20
80220;DHT22;76726;42.134;24.748;2024-03-23T14:35:04;39.70;13.30
80220;DHT22;76726;42.134;24.748;2024-03-23T14:37:30;40.00;13.20
80220;DHT22;76726;42.134;24.748;2024-03-23T14:39:57;40.60;13.20
80220;DHT22;76726;42.134;24.748;2024-03-23T14:42:23;41.20;13.20
80220;DHT22;76726;42.134;24.748;2024-03-23T14:44:50;41.40;12.90
80220;DHT22;76726;42.134;24.748;2024-03-23T14:47:15;41.70;12.80
80220;DHT22;76726;42.134;24.748;2024-03-23T14:49:43;41.40;12.40
80220;DHT22;76726;42.134;24.748;2024-03-23T14:52:15;41.40;12.70
80220;DHT22;76726;42.134;24.748;2024-03-23T14:54:41;41.50;12.30
80220;DHT22;76726;42.134;24.748;2024-03-23T14:57:07;41.20;12.20
80220;DHT22;76726;42.134;24.748;2024-03-23T14:59:35;41.30;12.10
80220;DHT22;76726;42.134;24.748;2024-03-23T15:02:01;41.10;11.90
80220;DHT22;76726;42.134;24.748;2024-03-23T15:04:27;40.70;11.90
80220;DHT22;76726;42.134;24.748;2024-03-23T15:06:53;40.00;11.70
80220;DHT22;76726;42.134;24.748;2024-03-23T15:09:18;39.50;11.90
80220;DHT22;76726;42.134;24.748;2024-03-23T15:11:44;39.00;12.10
80220;DHT22;76726;42.134;24.748;2024-03-23T15:14:10;38.90;12.40
80220;DHT22;76726;42.134;24.748;2024-03-23T15:16:36;39.20;12.80
80220;DHT22;76726;42.134;24.748;2024-03-23T15:19:02;39.40;12.90
80220;DHT22;76726;42.134;24.748;2024-03-23T15:21:28;39.40;12.90
80220;DHT22;76726;42.134;24.748;2024-03-23T15:23:54;39.30;13.20
80220;DHT22;76726;42.134;24.748;2024-03-23T15:26:21;38.90;13.10
80220;DHT22;76726;42.134;24.748;2024-03-23T15:28:47;38.70;13.20
80220;DHT22;76726;42.134;24.748;2024-03-23T15:31:22;38.50;13.20
80220;DHT22;76726;42.134;24.748;2024-03-23T15:33:48;38.20;13.30
80220;DHT22;76726;42.134;24.748;2024-03-23T15:36:14;37.70;13.30
80220;DHT22;76726;42.134;24.748;2024-03-23T15:38:41;37.20;13.60
80220;DHT22;76726;42.134;24.748;2024-03-23T15:41:06;36.40;13.50
80220;DHT22;76726;42.134;24.748;2024-03-23T15:43:33;35.30;13.60
80220;DHT22;76726;42.134;24.748;2024-03-23T15:46:00;34.00;14.00
80220;DHT22;76726;42.134;24.748;2024-03-23T15:48:26;32.90;14.70
80220;DHT22;76726;42.134;24.748;2024-03-23T15:50:59;32.00;14.60
80220;DHT22;76726;42.134;24.748;2024-03-23T15:53:25;30.90;14.90
80220;DHT22;76726;42.134;24.748;2024-03-23T15:55:58;30.00;15.30
80220;DHT22;76726;42.134;24.748;2024-03-23T15:58:24;28.90;16.00
80220;DHT22;76726;42.134;24.748;2024-03-23T16:01:09;27.80;16.20
80220;DHT22;76726;42.134;24.748;2024-03-23T16:03:36;26.70;16.40
80220;DHT22;76726;42.134;24.748;2024-03-23T16:06:03;25.60;17.20
80220;DHT22;76726;42.134;24.748;2024-03-23T16:08:30;24.70;17.70
80220;DHT22;76726;42.134;24.748;2024-03-23T16:11:03;23.90;18.40
80220;DHT22;76726;42.134;24.748;2024-03-23T16:13:29;23.20;19.30
80220;DHT22;76726;42.134;24.748;2024-03-23T16:15:58;22.60;19.90
80220;DHT22;76726;42.134;24.748;2024-03-23T16:18:24;22.20;20.50
80220;DHT22;76726;42.134;24.748;2024-03-23T16:21:03;21.70;21.10
80220;DHT22;76726;42.134;24.748;2024-03-23T16:23:33;21.40;21.60
80220;DHT22;76726;42.134;24.748;2024-03-23T16:26:01;21.00;22.20